sensor_id;sensor_type;location;lat;lon;timestamp;pressure;altitude;pressure_sealevel;temperature;humidity
75913;BME280;64592;52.168;21.040;2024-03-23T00:53:57;99516.75;;;8.73;100.00
75913;BME280;64592;52.168;21.040;2024-03-23T00:58:59;99513.47;;;8.70;100.00
75913;BME280;64592;52.168;21.040;2024-03-23T01:04:01;99495.28;;;8.62;100.00
75913;BME280;64592;52.168;21.040;2024-03-23T01:09:05;99492.22;;;8.67;100.00
75913;BME280;64592;52.168;21.040;2024-03-23T01:14:09;99488.94;;;8.63;100.00
75913;BME280;64592;52.168;21.040;2024-03-23T01:19:11;99489.16;;;8.60;100.00
75913;BME280;64592;52.168;21.040;2024-03-23T01:24:14;99472.34;;;8.58;100.00
75913;BME280;64592;52.168;21.040;2024-03-23T01:29:16;99470.63;;;8.57;100.00
75913;BME280;64592;52.168;21.040;2024-03-23T01:34:17;99477.84;;;8.56;100.00
75913;BME280;64592;52.168;21.040;2024-03-23T01:39:22;99468.28;;;8.52;100.00
75913;BME280;64592;52.168;21.040;2024-03-23T01:44:24;99478.06;;;8.53;100.00
75913;BME280;64592;52.168;21.040;2024-03-23T01:49:25;99470.00;;;8.53;100.00
75913;BME280;64592;52.168;21.040;2024-03-23T01:54:29;99460.25;;;8.52;100.00
75913;BME280;64592;52.168;21.040;2024-03-23T01:59:31;99460.97;;;8.54;100.00
75913;BME280;64592;52.168;21.040;2024-03-23T02:04:33;99458.41;;;8.53;100.00
75913;BME280;64592;52.168;21.040;2024-03-23T02:09:36;99450.50;;;8.51;100.00
75913;BME280;64592;52.168;21.040;2024-03-23T02:14:38;99438.75;;;8.52;100.00
75913;BME280;64592;52.168;21.040;2024-03-23T02:19:39;99444.38;;;8.49;100.00
75913;BME280;64592;52.168;21.040;2024-03-23T02:24:43;99445.25;;;8.50;100.00
75913;BME280;64592;52.168;21.040;2024-03-23T02:29:44;99438.75;;;8.52;100.00
75913;BME280;64592;52.168;21.040;2024-03-23T02:34:46;99434.13;;;8.54;100.00
75913;BME280;64592;52.168;21.040;2024-03-23T02:39:49;99435.25;;;8.52;100.00
75913;BME280;64592;52.168;21.040;2024-03-23T02:44:50;99425.31;;;8.52;100.00
75913;BME280;64592;52.168;21.040;2024-03-23T02:49:52;99428.84;;;8.53;100.00
75913;BME280;64592;52.168;21.040;2024-03-23T02:54:56;99422.50;;;8.54;100.00
75913;BME280;64592;52.168;21.040;2024-03-23T02:59:57;99415.31;;;8.54;100.00
75913;BME280;64592;52.168;21.040;2024-03-23T03:04:59;99409.81;;;8.56;100.00
75913;BME280;64592;52.168;21.040;2024-03-23T03:10:02;99402.00;;;8.53;100.00
75913;BME280;64592;52.168;21.040;2024-03-23T03:15:06;99398.47;;;8.52;100.00
75913;BME280;64592;52.168;21.040;2024-03-23T03:20:09;99389.44;;;8.53;100.00
75913;BME280;64592;52.168;21.040;2024-03-23T03:25:15;99392.25;;;8.52;100.00
75913;BME280;64592;52.168;21.040;2024-03-23T03:30:16;99398.22;;;8.55;100.00
75913;BME280;64592;52.168;21.040;2024-03-23T03:35:18;99399.19;;;8.54;100.00
75913;BME280;64592;52.168;21.040;2024-03-23T03:40:21;99406.50;;;8.52;100.00
75913;BME280;64592;52.168;21.040;2024-03-23T03:45:23;99407.25;;;8.54;100.00
75913;BME280;64592;52.168;21.040;2024-03-23T03:50:25;99398.47;;;8.52;100.00
75913;BME280;64592;52.168;21.040;2024-03-23T03:55:28;99394.78;;;8.53;100.00
75913;BME280;64592;52.168;21.040;2024-03-23T04:00:29;99389.44;;;8.53;100.00
75913;BME280;64592;52.168;21.040;2024-03-23T04:05:31;99391.25;;;8.53;100.00
75913;BME280;64592;52.168;21.040;2024-03-23T04:10:34;99386.28;;;8.48;100.00
75913;BME280;64592;52.168;21.040;2024-03-23T04:15:36;99378.97;;;8.50;100.00
75913;BME280;64592;52.168;21.040;2024-03-23T04:20:37;99383.34;;;8.51;100.00
75913;BME280;64592;52.168;21.040;2024-03-23T04:25:40;99366.50;;;8.49;100.00
75913;BME280;64592;52.168;21.040;2024-03-23T04:30:42;99355.47;;;8.52;100.00
75913;BME280;64592;52.168;21.040;2024-03-23T04:35:44;99348.44;;;8.51;100.00
75913;BME280;64592;52.168;21.040;2024-03-23T04:40:54;99348.44;;;8.51;100.00
75913;BME280;64592;52.168;21.040;2024-03-23T04:45:55;99357.47;;;8.50;100.00
75913;BME280;64592;52.168;21.040;2024-03-23T04:50:57;99349.53;;;8.49;100.00
75913;BME280;64592;52.168;21.040;2024-03-23T04:56:00;99339.66;;;8.49;100.00
75913;BME280;64592;52.168;21.040;2024-03-23T05:01:04;99340.63;;;8.48;100.00
75913;BME280;64592;52.168;21.040;2024-03-23T05:06:06;99314.63;;;8.49;100.00
75913;BME280;64592;52.168;21.040;2024-03-23T05:11:09;99320.97;;;8.48;100.00
75913;BME280;64592;52.168;21.040;2024-03-23T05:16:11;99332.56;;;8.48;100.00
75913;BME280;64592;52.168;21.040;2024-03-23T05:21:13;99337.94;;;8.48;100.00
75913;BME280;64592;52.168;21.040;2024-03-23T05:26:16;99329.03;;;8.48;100.00
75913;BME280;64592;52.168;21.040;2024-03-23T05:31:24;99316.44;;;8.48;100.00
75913;BME280;64592;52.168;21.040;2024-03-23T05:36:26;99317.31;;;8.49;100.00
75913;BME280;64592;52.168;21.040;2024-03-23T05:41:29;99324.38;;;8.50;100.00
75913;BME280;64592;52.168;21.040;2024-03-23T05:46:30;99311.69;;;8.52;100.00
75913;BME280;64592;52.168;21.040;2024-03-23T05:51:32;99315.06;;;8.54;100.00
75913;BME280;64592;52.168;21.040;2024-03-23T05:56:36;99307.13;;;8.52;100.00
75913;BME280;64592;52.168;21.040;2024-03-23T06:01:37;99314.09;;;8.55;100.00
75913;BME280;64592;52.168;21.040;2024-03-23T06:06:39;99300.66;;;8.55;100.00
75913;BME280;64592;52.168;21.040;2024-03-23T06:11:42;99295.16;;;8.56;100.00
75913;BME280;64592;52.168;21.040;2024-03-23T06:16:44;99300.41;;;8.58;100.00
75913;BME280;64592;52.168;21.040;2024-03-23T06:21:46;99310.31;;;8.57;100.00
75913;BME280;64592;52.168;21.040;2024-03-23T06:26:49;99306.38;;;8.62;100.00
75913;BME280;64592;52.168;21.040;2024-03-23T06:31:54;99297.34;;;8.63;100.00
75913;BME280;64592;52.168;21.040;2024-03-23T06:36:56;99293.66;;;8.64;100.00
75913;BME280;64592;52.168;21.040;2024-03-23T06:41:59;99288.19;;;8.65;100.00
75913;BME280;64592;52.168;21.040;2024-03-23T06:47:00;99290.97;;;8.64;100.00
75913;BME280;64592;52.168;21.040;2024-03-23T06:52:03;99277.56;;;8.64;100.00
75913;BME280;64592;52.168;21.040;2024-03-23T06:57:06;99268.25;;;8.68;100.00
75913;BME280;64592;52.168;21.040;2024-03-23T07:02:08;99261.19;;;8.67;100.00
75913;BME280;64592;52.168;21.040;2024-03-23T07:07:09;99260.91;;;8.70;100.00
75913;BME280;64592;52.168;21.040;2024-03-23T07:12:13;99253.81;;;8.69;100.00
75913;BME280;64592;52.168;21.040;2024-03-23T07:17:15;99261.75;;;8.70;100.00
75913;BME280;64592;52.168;21.040;2024-03-23T07:22:18;99257.13;;;8.72;100.00
75913;BME280;64592;52.168;21.040;2024-03-23T07:27:21;99257.97;;;8.73;100.00
75913;BME280;64592;52.168;21.040;2024-03-23T07:32:24;99244.53;;;8.73;100.00
75913;BME280;64592;52.168;21.040;2024-03-23T07:37:27;99240.16;;;8.72;100.00
75913;BME280;64592;52.168;21.040;2024-03-23T07:42:30;99252.59;;;8.73;100.00
75913;BME280;64592;52.168;21.040;2024-03-23T07:47:31;99254.44;;;8.72;100.00
75913;BME280;64592;52.168;21.040;2024-03-23T07:52:33;99225.72;;;8.73;100.00
75913;BME280;64592;52.168;21.040;2024-03-23T07:57:36;99226.59;;;8.73;100.00
75913;BME280;64592;52.168;21.040;2024-03-23T08:02:38;99211.88;;;8.77;100.00
75913;BME280;64592;52.168;21.040;2024-03-23T08:07:39;99210.78;;;8.80;100.00
75913;BME280;64592;52.168;21.040;2024-03-23T08:12:42;99185.81;;;8.89;100.00
75913;BME280;64592;52.168;21.040;2024-03-23T08:17:47;99185.53;;;8.92;100.00
75913;BME280;64592;52.168;21.040;2024-03-23T08:22:48;99183.44;;;8.95;100.00
75913;BME280;64592;52.168;21.040;2024-03-23T08:27:52;99183.44;;;9.05;100.00
75913;BME280;64592;52.168;21.040;2024-03-23T08:32:53;99184.91;;;9.09;100.00
75913;BME280;64592;52.168;21.040;2024-03-23T08:37:55;99171.47;;;9.09;100.00
75913;BME280;64592;52.168;21.040;2024-03-23T08:42:58;99166.09;;;9.19;100.00
75913;BME280;64592;52.168;21.040;2024-03-23T08:47:59;99143.50;;;9.31;100.00
75913;BME280;64592;52.168;21.040;2024-03-23T08:53:01;99138.59;;;9.46;100.00
75913;BME280;64592;52.168;21.040;2024-03-23T08:58:04;99136.22;;;9.62;100.00
75913;BME280;64592;52.168;21.040;2024-03-23T09:03:08;99127.59;;;9.78;100.00
75913;BME280;64592;52.168;21.040;2024-03-23T09:08:10;99129.69;;;9.93;100.00
75913;BME280;64592;52.168;21.040;2024-03-23T09:13:13;99113.41;;;10.04;100.00
75913;BME280;64592;52.168;21.040;2024-03-23T09:18:17;99102.19;;;10.09;100.00
75913;BME280;64592;52.168;21.040;2024-03-23T09:23:18;99084.63;;;10.24;100.00
75913;BME280;64592;52.168;21.040;2024-03-23T09:28:22;99074.13;;;10.31;100.00
75913;BME280;64592;52.168;21.040;2024-03-23T09:33:23;99061.34;;;10.42;100.00
75913;BME280;64592;52.168;21.040;2024-03-23T09:38:25;99052.66;;;10.48;100.00
75913;BME280;64592;52.168;21.040;2024-03-23T09:43:28;99037.25;;;10.68;100.00
75913;BME280;64592;52.168;21.040;2024-03-23T09:48:30;99049.69;;;10.79;100.00
75913;BME280;64592;52.168;21.040;2024-03-23T09:53:32;99041.28;;;10.82;100.00
75913;BME280;64592;52.168;21.040;2024-03-23T09:58:35;99032.16;;;10.93;100.00
75913;BME280;64592;52.168;21.040;2024-03-23T10:03:42;99021.34;;;11.02;100.00
75913;BME280;64592;52.168;21.040;2024-03-23T10:08:46;99010.47;;;11.12;100.00
75913;BME280;64592;52.168;21.040;2024-03-23T10:13:49;98983.88;;;11.35;100.00
75913;BME280;64592;52.168;21.040;2024-03-23T10:18:50;98968.41;;;11.54;100.00
75913;BME280;64592;52.168;21.040;2024-03-23T10:23:52;98943.53;;;11.68;100.00
75913;BME280;64592;52.168;21.040;2024-03-23T10:28:56;98937.25;;;11.86;100.00
75913;BME280;64592;52.168;21.040;2024-03-23T10:34:01;98917.81;;;12.08;100.00
75913;BME280;64592;52.168;21.040;2024-03-23T10:39:02;98906.13;;;12.33;100.00
75913;BME280;64592;52.168;21.040;2024-03-23T10:44:07;98897.44;;;12.56;100.00
75913;BME280;64592;52.168;21.040;2024-03-23T10:49:09;98884.16;;;12.87;100.00
75913;BME280;64592;52.168;21.040;2024-03-23T10:54:11;98880.84;;;13.25;100.00
75913;BME280;64592;52.168;21.040;2024-03-23T10:59:15;98871.53;;;13.52;100.00
75913;BME280;64592;52.168;21.040;2024-03-23T11:04:29;98845.75;;;13.72;100.00
75913;BME280;64592;52.168;21.040;2024-03-23T11:09:41;98849.91;;;14.07;100.00
75913;BME280;64592;52.168;21.040;2024-03-23T11:14:47;98831.03;;;14.22;100.00
75913;BME280;64592;52.168;21.040;2024-03-23T11:19:53;98840.63;;;14.41;100.00
75913;BME280;64592;52.168;21.040;2024-03-23T11:24:57;98837.88;;;14.49;100.00
75913;BME280;64592;52.168;21.040;2024-03-23T11:30:14;98829.66;;;14.88;100.00
75913;BME280;64592;52.168;21.040;2024-03-23T11:35:26;98816.31;;;15.01;100.00
75913;BME280;64592;52.168;21.040;2024-03-23T11:40:27;98805.69;;;15.14;100.00
75913;BME280;64592;52.168;21.040;2024-03-23T11:45:34;98821.94;;;15.37;100.00
75913;BME280;64592;52.168;21.040;2024-03-23T11:50:38;98800.88;;;15.39;98.60
75913;BME280;64592;52.168;21.040;2024-03-23T11:55:43;98778.81;;;15.57;96.96
75913;BME280;64592;52.168;21.040;2024-03-23T12:00:56;98770.03;;;15.84;90.43
75913;BME280;64592;52.168;21.040;2024-03-23T12:05:58;98758.47;;;16.11;87.76
75913;BME280;64592;52.168;21.040;2024-03-23T12:11:07;98757.50;;;16.19;86.99
75913;BME280;64592;52.168;21.040;2024-03-23T12:16:11;98748.41;;;16.26;83.34
75913;BME280;64592;52.168;21.040;2024-03-23T12:21:14;98737.88;;;16.23;85.52
75913;BME280;64592;52.168;21.040;2024-03-23T12:26:15;98745.06;;;16.10;83.90
75913;BME280;64592;52.168;21.040;2024-03-23T12:31:19;98722.34;;;15.67;84.20
75913;BME280;64592;52.168;21.040;2024-03-23T12:36:21;98722.59;;;15.42;86.20
75913;BME280;64592;52.168;21.040;2024-03-23T12:41:23;98707.44;;;15.19;89.56
75913;BME280;64592;52.168;21.040;2024-03-23T12:46:26;98688.56;;;14.88;87.02
75913;BME280;64592;52.168;21.040;2024-03-23T12:51:28;98669.38;;;14.74;87.84
75913;BME280;64592;52.168;21.040;2024-03-23T12:56:29;98670.91;;;14.69;88.95
75913;BME280;64592;52.168;21.040;2024-03-23T13:01:33;98661.28;;;14.66;91.47
75913;BME280;64592;52.168;21.040;2024-03-23T13:06:34;98645.00;;;14.52;90.91
75913;BME280;64592;52.168;21.040;2024-03-23T13:11:36;98643.13;;;14.52;91.41
75913;BME280;64592;52.168;21.040;2024-03-23T13:16:39;98624.00;;;14.46;92.20
75913;BME280;64592;52.168;21.040;2024-03-23T13:21:41;98615.41;;;14.42;92.84
75913;BME280;64592;52.168;21.040;2024-03-23T13:26:43;98609.97;;;14.42;93.36
75913;BME280;64592;52.168;21.040;2024-03-23T13:31:46;98592.03;;;14.41;93.48
75913;BME280;64592;52.168;21.040;2024-03-23T13:36:48;98579.13;;;14.43;93.70
75913;BME280;64592;52.168;21.040;2024-03-23T13:41:49;98566.22;;;14.45;92.00
75913;BME280;64592;52.168;21.040;2024-03-23T13:46:52;98557.91;;;14.47;92.78
75913;BME280;64592;52.168;21.040;2024-03-23T13:51:55;98559.78;;;14.46;92.79
75913;BME280;64592;52.168;21.040;2024-03-23T13:56:58;98551.00;;;14.44;94.00
75913;BME280;64592;52.168;21.040;2024-03-23T14:02:01;98546.22;;;14.46;92.36
75913;BME280;64592;52.168;21.040;2024-03-23T14:07:03;98546.69;;;14.50;92.36
75913;BME280;64592;52.168;21.040;2024-03-23T14:12:05;98528.56;;;14.50;92.71
75913;BME280;64592;52.168;21.040;2024-03-23T14:17:10;98517.91;;;14.49;92.00
75913;BME280;64592;52.168;21.040;2024-03-23T14:22:14;98508.06;;;14.48;93.03
75913;BME280;64592;52.168;21.040;2024-03-23T14:27:18;98487.06;;;14.50;93.81
75913;BME280;64592;52.168;21.040;2024-03-23T14:32:21;98482.47;;;14.50;93.50
75913;BME280;64592;52.168;21.040;2024-03-23T14:37:23;98474.34;;;14.50;93.93
75913;BME280;64592;52.168;21.040;2024-03-23T14:42:24;98459.09;;;14.49;95.01
75913;BME280;64592;52.168;21.040;2024-03-23T14:47:27;98460.97;;;14.49;95.91
75913;BME280;64592;52.168;21.040;2024-03-23T14:52:29;98477.22;;;14.49;95.56
75913;BME280;64592;52.168;21.040;2024-03-23T14:57:31;98485.25;;;14.42;98.30
75913;BME280;64592;52.168;21.040;2024-03-23T15:02:35;98480.91;;;14.33;100.00
75913;BME280;64592;52.168;21.040;2024-03-23T15:07:37;98490.72;;;14.19;100.00
75913;BME280;64592;52.168;21.040;2024-03-23T15:12:39;98506.78;;;14.06;100.00
75913;BME280;64592;52.168;21.040;2024-03-23T15:17:42;98526.28;;;14.02;100.00
75913;BME280;64592;52.168;21.040;2024-03-23T15:22:45;98515.84;;;13.76;100.00
75913;BME280;64592;52.168;21.040;2024-03-23T15:27:47;98538.31;;;13.31;100.00
75913;BME280;64592;52.168;21.040;2024-03-23T15:32:50;98564.50;;;12.91;100.00
75913;BME280;64592;52.168;21.040;2024-03-23T15:37:52;98575.75;;;12.64;100.00
75913;BME280;64592;52.168;21.040;2024-03-23T15:42:54;98604.16;;;12.27;100.00
75913;BME280;64592;52.168;21.040;2024-03-23T15:47:57;98613.63;;;12.15;100.00
75913;BME280;64592;52.168;21.040;2024-03-23T15:52:59;98603.81;;;11.98;100.00
75913;BME280;64592;52.168;21.040;2024-03-23T15:58:00;98604.81;;;11.89;100.00
75913;BME280;64592;52.168;21.040;2024-03-23T16:03:04;98562.47;;;11.81;100.00
75913;BME280;64592;52.168;21.040;2024-03-23T16:08:06;98496.13;;;11.79;100.00
75913;BME280;64592;52.168;21.040;2024-03-23T16:13:09;98497.50;;;11.75;100.00
75913;BME280;64592;52.168;21.040;2024-03-23T16:18:12;98446.88;;;11.68;100.00
75913;BME280;64592;52.168;21.040;2024-03-23T16:23:13;98482.81;;;11.61;100.00
75913;BME280;64592;52.168;21.040;2024-03-23T16:28:15;98469.97;;;11.55;100.00
75913;BME280;64592;52.168;21.040;2024-03-23T16:33:18;98476.88;;;11.49;100.00
75913;BME280;64592;52.168;21.040;2024-03-23T16:38:20;98498.44;;;11.41;100.00
75913;BME280;64592;52.168;21.040;2024-03-23T16:43:21;98479.06;;;11.38;100.00
75913;BME280;64592;52.168;21.040;2024-03-23T16:48:26;98473.16;;;11.34;100.00
75913;BME280;64592;52.168;21.040;2024-03-23T16:53:27;98491.69;;;11.29;100.00
75913;BME280;64592;52.168;21.040;2024-03-23T16:58:31;98479.72;;;11.23;100.00
75913;BME280;64592;52.168;21.040;2024-03-23T17:03:34;98502.97;;;11.16;100.00
75913;BME280;64592;52.168;21.040;2024-03-23T17:08:36;98502.78;;;11.10;100.00
75913;BME280;64592;52.168;21.040;2024-03-23T17:13:38;98509.84;;;11.03;100.00
75913;BME280;64592;52.168;21.040;2024-03-23T17:18:41;98490.28;;;11.01;100.00
75913;BME280;64592;52.168;21.040;2024-03-23T17:23:43;98495.50;;;10.94;100.00
75913;BME280;64592;52.168;21.040;2024-03-23T17:28:44;98491.28;;;10.92;100.00
75913;BME280;64592;52.168;21.040;2024-03-23T17:33:50;98507.78;;;10.88;100.00
75913;BME280;64592;52.168;21.040;2024-03-23T17:38:53;98508.09;;;10.85;100.00
75913;BME280;64592;52.168;21.040;2024-03-23T17:43:55;98515.19;;;10.86;100.00
75913;BME280;64592;52.168;21.040;2024-03-23T17:48:58;98527.47;;;10.81;100.00
75913;BME280;64592;52.168;21.040;2024-03-23T17:54:00;98564.38;;;10.80;100.00
75913;BME280;64592;52.168;21.040;2024-03-23T17:59:02;98543.81;;;10.79;100.00
75913;BME280;64592;52.168;21.040;2024-03-23T18:04:05;98562.97;;;10.76;100.00
75913;BME280;64592;52.168;21.040;2024-03-23T18:09:06;98588.22;;;10.75;100.00
75913;BME280;64592;52.168;21.040;2024-03-23T18:14:10;98584.53;;;10.76;100.00
75913;BME280;64592;52.168;21.040;2024-03-23T18:19:13;98601.41;;;10.78;100.00
75913;BME280;64592;52.168;21.040;2024-03-23T18:24:14;98613.84;;;10.71;100.00
75913;BME280;64592;52.168;21.040;2024-03-23T18:29:16;98609.53;;;10.61;100.00
75913;BME280;64592;52.168;21.040;2024-03-23T18:34:19;98629.81;;;10.47;100.00
75913;BME280;64592;52.168;21.040;2024-03-23T18:39:21;98637.91;;;10.47;100.00
75913;BME280;64592;52.168;21.040;2024-03-23T18:44:23;98648.56;;;10.13;100.00
75913;BME280;64592;52.168;21.040;2024-03-23T18:49:26;98692.06;;;9.73;100.00
75913;BME280;64592;52.168;21.040;2024-03-23T18:54:27;98711.88;;;9.54;100.00
75913;BME280;64592;52.168;21.040;2024-03-23T18:59:29;98728.91;;;9.08;100.00
75913;BME280;64592;52.168;21.040;2024-03-23T19:04:32;98737.16;;;8.87;100.00
75913;BME280;64592;52.168;21.040;2024-03-23T19:09:34;98770.97;;;8.71;100.00
75913;BME280;64592;52.168;21.040;2024-03-23T19:14:35;98772.97;;;8.49;100.00
75913;BME280;64592;52.168;21.040;2024-03-23T19:19:41;98818.16;;;8.25;100.00
75913;BME280;64592;52.168;21.040;2024-03-23T19:24:43;98832.66;;;8.03;100.00
75913;BME280;64592;52.168;21.040;2024-03-23T19:29:44;98863.41;;;7.90;100.00
75913;BME280;64592;52.168;21.040;2024-03-23T19:34:47;98891.31;;;7.77;100.00
75913;BME280;64592;52.168;21.040;2024-03-23T19:39:49;98905.88;;;7.54;100.00
75913;BME280;64592;52.168;21.040;2024-03-23T19:44:51;98926.41;;;7.23;100.00
75913;BME280;64592;52.168;21.040;2024-03-23T19:49:54;98943.31;;;7.03;100.00
75913;BME280;64592;52.168;21.040;2024-03-23T19:54:55;98938.53;;;7.07;100.00
75913;BME280;64592;52.168;21.040;2024-03-23T19:59:57;98928.00;;;6.94;100.00
75913;BME280;64592;52.168;21.040;2024-03-23T20:05:00;98956.63;;;6.82;100.00
75913;BME280;64592;52.168;21.040;2024-03-23T20:10:03;98977.13;;;6.72;100.00
75913;BME280;64592;52.168;21.040;2024-03-23T20:15:06;98988.72;;;6.61;100.00
75913;BME280;64592;52.168;21.040;2024-03-23T20:20:10;98986.03;;;6.61;100.00
75913;BME280;64592;52.168;21.040;2024-03-23T20:25:12;99008.81;;;6.56;100.00
75913;BME280;64592;52.168;21.040;2024-03-23T20:30:13;99020.97;;;6.38;100.00
75913;BME280;64592;52.168;21.040;2024-03-23T20:35:16;99029.00;;;6.38;100.00
75913;BME280;64592;52.168;21.040;2024-03-23T20:40:18;99044.69;;;6.31;100.00
75913;BME280;64592;52.168;21.040;2024-03-23T20:45:20;99050.78;;;6.33;100.00
75913;BME280;64592;52.168;21.040;2024-03-23T20:50:23;99039.94;;;6.23;100.00
75913;BME280;64592;52.168;21.040;2024-03-23T20:55:24;99049.44;;;6.16;100.00
75913;BME280;64592;52.168;21.040;2024-03-23T21:00:26;99088.13;;;6.12;100.00
75913;BME280;64592;52.168;21.040;2024-03-23T21:05:29;99059.28;;;6.16;100.00
75913;BME280;64592;52.168;21.040;2024-03-23T21:10:31;99077.41;;;6.12;100.00
75913;BME280;64592;52.168;21.040;2024-03-23T21:15:33;99091.00;;;6.09;100.00
75913;BME280;64592;52.168;21.040;2024-03-23T21:20:37;99082.50;;;6.04;100.00
75913;BME280;64592;52.168;21.040;2024-03-23T21:25:39;99078.59;;;6.08;100.00
75913;BME280;64592;52.168;21.040;2024-03-23T21:30:42;99099.03;;;6.09;100.00
75913;BME280;64592;52.168;21.040;2024-03-23T21:35:53;99113.75;;;6.04;100.00
75913;BME280;64592;52.168;21.040;2024-03-23T21:40:56;99097.31;;;5.97;100.00
75913;BME280;64592;52.168;21.040;2024-03-23T21:46:01;99081.03;;;6.00;100.00
75913;BME280;64592;52.168;21.040;2024-03-23T21:51:05;99067.91;;;5.97;100.00
75913;BME280;64592;52.168;21.040;2024-03-23T21:56:07;99075.44;;;6.03;100.00
75913;BME280;64592;52.168;21.040;2024-03-23T22:01:09;99088.06;;;6.01;100.00
75913;BME280;64592;52.168;21.040;2024-03-23T22:06:12;99093.19;;;6.04;100.00
75913;BME280;64592;52.168;21.040;2024-03-23T22:11:13;99098.03;;;5.88;100.00
75913;BME280;64592;52.168;21.040;2024-03-23T22:16:15;99108.50;;;5.91;100.00
75913;BME280;64592;52.168;21.040;2024-03-23T22:21:18;99112.31;;;5.87;100.00
75913;BME280;64592;52.168;21.040;2024-03-23T22:26:20;99102.97;;;5.81;100.00
75913;BME280;64592;52.168;21.040;2024-03-23T22:31:22;99106.78;;;5.90;100.00
75913;BME280;64592;52.168;21.040;2024-03-23T22:36:25;99119.19;;;5.91;100.00
75913;BME280;64592;52.168;21.040;2024-03-23T22:41:26;99105.56;;;5.94;100.00
75913;BME280;64592;52.168;21.040;2024-03-23T22:46:28;99102.28;;;5.91;100.00
75913;BME280;64592;52.168;21.040;2024-03-23T22:51:31;99100.16;;;5.83;100.00
75913;BME280;64592;52.168;21.040;2024-03-23T22:56:32;99102.09;;;5.81;100.00
75913;BME280;64592;52.168;21.040;2024-03-23T23:01:34;99110.44;;;5.89;100.00
75913;BME280;64592;52.168;21.040;2024-03-23T23:06:37;99124.13;;;5.84;100.00
75913;BME280;64592;52.168;21.040;2024-03-23T23:11:39;99127.75;;;5.83;100.00
75913;BME280;64592;52.168;21.040;2024-03-23T23:16:40;99136.47;;;5.74;100.00
75913;BME280;64592;52.168;21.040;2024-03-23T23:21:46;99128.06;;;5.68;100.00
75913;BME280;64592;52.168;21.040;2024-03-23T23:26:48;99114.69;;;5.68;100.00
75913;BME280;64592;52.168;21.040;2024-03-23T23:31:50;99106.41;;;5.60;100.00
75913;BME280;64592;52.168;21.040;2024-03-23T23:36:53;99110.28;;;5.56;100.00
75913;BME280;64592;52.168;21.040;2024-03-23T23:41:55;99120.69;;;5.47;100.00
75913;BME280;64592;52.168;21.040;2024-03-23T23:46:56;99121.03;;;5.43;100.00
75913;BME280;64592;52.168;21.040;2024-03-23T23:52:00;99132.06;;;5.38;100.00
75913;BME280;64592;52.168;21.040;2024-03-23T23:57:01;99135.91;;;5.34;100.00
